Time;durP1;ratioP1;P1;durP2;ratioP2;P2;SDS_P1;SDS_P2;PMS_P1;PMS_P2;Temp;Humidity;BMP_temperature;BMP_pressure;BME280_temperature;BME280_humidity;BME280_pressure;Samples;Min_cycle;Max_cycle;Signal;HPM_P1;HPM_P2
2022/10/21 00:00:13;0.00;0.00;0.62;0.00;0.00;0.62;2.60;1.87;;;27.40;26.20;;;;;;2265680;61;20572;-69
2022/10/21 00:02:58;0.00;0.00;0.62;0.00;0.00;0.62;3.07;2.13;;;27.40;26.30;;;;;;2265324;61;20573;-68
2022/10/21 00:05:43;0.00;0.00;0.62;0.00;0.00;0.62;2.13;1.73;;;27.40;26.30;;;;;;2264811;61;20416;-69
2022/10/21 00:08:28;0.00;0.00;0.62;0.00;0.00;0.62;4.07;2.37;;;27.40;26.30;;;;;;2265468;61;20360;-70
2022/10/21 00:11:13;0.00;0.00;0.62;0.00;0.00;0.62;2.70;2.40;;;27.40;26.40;;;;;;2265573;61;20353;-69
2022/10/21 00:13:57;0.00;0.00;0.62;0.00;0.00;0.62;2.40;2.10;;;27.40;26.40;;;;;;2265015;61;20726;-69
2022/10/21 00:16:43;0.00;0.00;0.62;0.00;0.00;0.62;3.63;2.70;;;27.40;26.90;;;;;;2265787;61;20752;-69
2022/10/21 00:19:28;0.00;0.00;0.62;0.00;0.00;0.62;2.93;2.50;;;27.40;26.40;;;;;;2265184;61;20592;-69
2022/10/21 00:22:12;0.00;0.00;0.62;0.00;0.00;0.62;2.60;2.40;;;27.40;26.50;;;;;;2265475;61;20615;-69
2022/10/21 00:24:57;0.00;0.00;0.62;0.00;0.00;0.62;3.60;3.00;;;27.30;26.40;;;;;;2265491;61;20688;-69
2022/10/21 00:27:41;0.00;0.00;0.62;0.00;0.00;0.62;4.77;3.40;;;27.30;26.40;;;;;;2264641;61;20737;-69
2022/10/21 00:30:26;0.00;0.00;0.62;0.00;0.00;0.62;4.83;2.97;;;27.30;26.50;;;;;;2265621;61;20369;-69
2022/10/21 00:33:12;0.00;0.00;0.62;0.00;0.00;0.62;3.37;2.67;;;27.30;26.50;;;;;;2265514;61;20702;-69
2022/10/21 00:36:01;0.00;0.00;0.62;0.00;0.00;0.62;3.33;2.70;;;27.20;26.50;;;;;;2265175;61;20715;-69
2022/10/21 00:38:47;0.00;0.00;0.62;0.00;0.00;0.62;3.40;3.00;;;27.20;26.50;;;;;;2265632;61;20385;-69
2022/10/21 00:41:32;0.00;0.00;0.62;0.00;0.00;0.62;4.17;3.20;;;27.20;26.60;;;;;;2265100;61;20568;-69
2022/10/21 00:44:17;0.00;0.00;0.62;0.00;0.00;0.62;4.73;3.87;;;27.20;26.60;;;;;;2265336;61;20423;-69
2022/10/21 00:47:06;0.00;0.00;0.62;0.00;0.00;0.62;4.30;3.60;;;27.20;26.60;;;;;;2265523;61;20414;-69
2022/10/21 00:49:57;0.00;0.00;0.62;0.00;0.00;0.62;4.43;3.30;;;27.10;26.60;;;;;;2264627;61;20611;-69
2022/10/21 00:52:42;0.00;0.00;0.62;0.00;0.00;0.62;5.70;4.00;;;27.10;26.70;;;;;;2265553;61;20480;-69
2022/10/21 00:55:32;0.00;0.00;0.62;0.00;0.00;0.62;4.77;3.63;;;27.10;26.80;;;;;;2265413;61;20415;-69
2022/10/21 00:58:21;0.00;0.00;0.62;0.00;0.00;0.62;4.70;4.20;;;27.00;26.80;;;;;;2265042;61;20353;-69
2022/10/21 01:01:07;0.00;0.00;0.62;0.00;0.00;0.62;5.53;4.63;;;27.00;26.90;;;;;;2265876;61;20400;-69
2022/10/21 01:03:52;0.00;0.00;0.62;0.00;0.00;0.62;4.80;4.40;;;27.00;27.50;;;;;;2264734;61;20388;-69
2022/10/21 01:06:39;0.00;0.00;0.62;0.00;0.00;0.62;7.30;4.43;;;27.00;27.10;;;;;;2265444;61;20380;-69
2022/10/21 01:09:24;0.00;0.00;0.62;0.00;0.00;0.62;5.47;4.40;;;26.90;27.20;;;;;;2265473;61;20729;-68
2022/10/21 01:12:24;0.00;0.00;0.62;0.00;0.00;0.62;6.13;4.20;;;26.90;27.20;;;;;;2264906;61;20439;-69
2022/10/21 01:15:16;0.00;0.00;0.62;0.00;0.00;0.62;5.50;3.93;;;26.80;27.20;;;;;;2265899;61;20372;-70
2022/10/21 01:18:12;0.00;0.00;0.62;0.00;0.00;0.62;5.60;4.43;;;26.80;27.20;;;;;;2265365;61;20361;-70
2022/10/21 01:21:14;0.00;0.00;0.62;0.00;0.00;0.62;5.33;4.60;;;26.80;27.30;;;;;;2262238;61;20357;-70
2022/10/21 01:24:44;0.00;0.00;0.62;0.00;0.00;0.62;5.10;4.20;;;26.80;27.40;;;;;;2265441;61;20419;-70
2022/10/21 01:27:41;0.00;0.00;0.62;0.00;0.00;0.62;4.60;4.20;;;26.70;27.40;;;;;;2264607;61;20725;-70
2022/10/21 01:30:36;0.00;0.00;0.62;0.00;0.00;0.62;5.57;3.97;;;26.60;27.40;;;;;;2265581;61;20408;-70
2022/10/21 01:33:39;0.00;0.00;0.62;0.00;0.00;0.62;5.20;4.80;;;26.60;27.40;;;;;;2264700;61;20354;-70
2022/10/21 01:36:36;0.00;0.00;0.62;0.00;0.00;0.62;4.37;3.70;;;26.60;27.50;;;;;;2261532;61;20750;-69
2022/10/21 01:39:27;0.00;0.00;0.62;0.00;0.00;0.62;4.87;4.00;;;26.50;27.50;;;;;;2261028;61;20729;-69
2022/10/21 01:42:19;0.00;0.00;0.62;0.00;0.00;0.62;4.57;3.90;;;26.50;27.50;;;;;;2260960;61;20357;-69
2022/10/21 01:45:11;0.00;0.00;0.62;0.00;0.00;0.62;5.50;4.43;;;26.50;27.50;;;;;;2261506;61;20397;-69
2022/10/21 01:48:01;0.00;0.00;0.62;0.00;0.00;0.62;3.87;3.47;;;26.50;27.50;;;;;;2260739;61;20396;-69
2022/10/21 01:50:50;0.00;0.00;0.62;0.00;0.00;0.62;5.77;4.07;;;26.50;27.50;;;;;;2261298;61;20390;-69
2022/10/21 01:53:42;0.00;0.00;0.62;0.00;0.00;0.62;5.50;3.10;;;26.50;27.50;;;;;;2261631;61;20384;-69
2022/10/21 01:56:29;0.00;0.00;0.62;0.00;0.00;0.62;3.93;3.53;;;26.50;27.50;;;;;;2260876;61;20409;-69
2022/10/21 01:59:16;0.00;0.00;0.62;0.00;0.00;0.62;6.10;3.10;;;26.50;27.50;;;;;;2261549;61;20396;-69
2022/10/21 02:02:04;0.00;0.00;0.62;0.00;0.00;0.62;3.30;3.00;;;26.50;27.50;;;;;;2261062;61;20365;-69
2022/10/21 02:04:51;0.00;0.00;0.62;0.00;0.00;0.62;3.37;3.07;;;26.40;27.50;;;;;;2260892;61;20452;-69
2022/10/21 02:07:36;0.00;0.00;0.62;0.00;0.00;0.62;3.53;3.10;;;26.40;27.40;;;;;;2261048;61;20369;-69
2022/10/21 02:10:24;0.00;0.00;0.62;0.00;0.00;0.62;3.97;3.40;;;26.40;27.40;;;;;;2260844;61;20400;-69
2022/10/21 02:13:13;0.00;0.00;0.62;0.00;0.00;0.62;4.23;3.50;;;26.40;27.40;;;;;;2261199;61;20362;-69
2022/10/21 02:16:05;0.00;0.00;0.62;0.00;0.00;0.62;3.67;3.30;;;26.40;27.40;;;;;;2261144;61;20597;-69
2022/10/21 02:18:51;0.00;0.00;0.62;0.00;0.00;0.62;4.43;3.93;;;26.40;27.50;;;;;;2260783;61;20354;-69
2022/10/21 02:21:37;0.00;0.00;0.62;0.00;0.00;0.62;6.00;3.67;;;26.40;27.50;;;;;;2261619;61;20825;-69
2022/10/21 02:24:32;0.00;0.00;0.62;0.00;0.00;0.62;3.40;2.90;;;26.40;27.60;;;;;;2261067;61;20617;-69
2022/10/21 02:27:18;0.00;0.00;0.62;0.00;0.00;0.62;4.80;3.80;;;26.40;27.60;;;;;;2260839;61;20369;-69
2022/10/21 02:30:04;0.00;0.00;0.62;0.00;0.00;0.62;4.93;3.70;;;26.40;27.50;;;;;;2260861;61;20598;-69
2022/10/21 02:32:59;0.00;0.00;0.62;0.00;0.00;0.62;4.47;3.50;;;26.30;27.50;;;;;;2260735;61;20369;-69
2022/10/21 02:35:54;0.00;0.00;0.62;0.00;0.00;0.62;3.87;3.53;;;26.30;27.60;;;;;;2264970;61;20435;-69
2022/10/21 02:38:46;0.00;0.00;0.62;0.00;0.00;0.62;4.97;3.70;;;26.30;27.70;;;;;;2265833;61;20713;-69
2022/10/21 02:41:33;0.00;0.00;0.62;0.00;0.00;0.62;4.50;3.83;;;26.30;27.70;;;;;;2265537;61;20475;-69
2022/10/21 02:44:18;0.00;0.00;0.62;0.00;0.00;0.62;7.90;4.60;;;26.30;27.80;;;;;;2265872;61;20439;-69
2022/10/21 02:47:04;0.00;0.00;0.62;0.00;0.00;0.62;3.87;3.47;;;26.30;27.80;;;;;;2265851;61;20360;-69
2022/10/21 02:49:49;0.00;0.00;0.62;0.00;0.00;0.62;3.60;3.30;;;26.20;27.80;;;;;;2265762;61;20381;-69
2022/10/21 02:52:33;0.00;0.00;0.62;0.00;0.00;0.62;8.00;4.10;;;26.20;27.90;;;;;;2266290;61;20353;-69
2022/10/21 02:55:20;0.00;0.00;0.62;0.00;0.00;0.62;3.83;3.50;;;26.20;27.80;;;;;;2265522;61;20729;-69
2022/10/21 02:58:04;0.00;0.00;0.62;0.00;0.00;0.62;6.60;4.70;;;26.20;27.90;;;;;;2265993;61;20579;-69
2022/10/21 03:00:49;0.00;0.00;0.62;0.00;0.00;0.62;4.63;3.77;;;26.20;28.00;;;;;;2265723;61;20349;-69
2022/10/21 03:03:33;0.00;0.00;0.62;0.00;0.00;0.62;4.33;3.90;;;26.10;27.90;;;;;;2265265;61;20420;-68
2022/10/21 03:06:18;0.00;0.00;0.62;0.00;0.00;0.62;4.10;3.70;;;26.10;28.00;;;;;;2266150;61;20469;-69
2022/10/21 03:09:05;0.00;0.00;0.62;0.00;0.00;0.62;4.20;3.80;;;26.10;28.00;;;;;;2265703;61;20574;-69
2022/10/21 03:11:51;0.00;0.00;0.62;0.00;0.00;0.62;4.80;4.30;;;26.10;28.00;;;;;;2265687;61;20721;-69
2022/10/21 03:14:36;0.00;0.00;0.62;0.00;0.00;0.62;3.77;3.43;;;26.10;28.00;;;;;;2266006;61;20396;-69
2022/10/21 03:17:20;0.00;0.00;0.62;0.00;0.00;0.62;5.13;3.40;;;26.00;28.00;;;;;;2265347;61;20353;-69
2022/10/21 03:20:06;0.00;0.00;0.62;0.00;0.00;0.62;4.77;4.27;;;26.00;28.10;;;;;;2265894;61;20357;-69
2022/10/21 03:22:51;0.00;0.00;0.62;0.00;0.00;0.62;4.00;3.30;;;26.00;28.10;;;;;;2265566;61;20713;-69
2022/10/21 03:25:36;0.00;0.00;0.62;0.00;0.00;0.62;3.50;3.20;;;26.00;28.10;;;;;;2265184;61;20599;-69
2022/10/21 03:28:22;0.00;0.00;0.62;0.00;0.00;0.62;3.53;3.17;;;26.00;28.00;;;;;;2266118;61;20430;-69
2022/10/21 03:31:07;0.00;0.00;0.62;0.00;0.00;0.62;3.53;3.23;;;26.00;28.00;;;;;;2265619;61;20376;-69
2022/10/21 03:33:51;0.00;0.00;0.62;0.00;0.00;0.62;4.63;3.50;;;26.00;28.60;;;;;;2265156;61;20385;-69
2022/10/21 03:36:37;0.00;0.00;0.62;0.00;0.00;0.62;5.23;4.20;;;26.00;28.10;;;;;;2266095;61;20403;-69
2022/10/21 03:39:21;0.00;0.00;0.62;0.00;0.00;0.62;4.37;3.97;;;26.00;28.10;;;;;;2266684;61;20379;-70
2022/10/21 03:42:06;0.00;0.00;0.62;0.00;0.00;0.62;3.20;2.90;;;26.00;28.20;;;;;;2269874;61;20352;-70
2022/10/21 03:44:52;0.00;0.00;0.62;0.00;0.00;0.62;3.67;3.37;;;26.00;28.20;;;;;;2269555;61;20430;-70
2022/10/21 03:47:36;0.00;0.00;0.62;0.00;0.00;0.62;4.50;3.97;;;25.90;28.10;;;;;;2269225;61;20352;-69
2022/10/21 03:50:21;0.00;0.00;0.62;0.00;0.00;0.62;4.30;3.90;;;25.90;28.20;;;;;;2270079;61;20352;-69
2022/10/21 03:53:06;0.00;0.00;0.62;0.00;0.00;0.62;4.83;3.57;;;25.90;28.20;;;;;;2269191;61;20364;-69
2022/10/21 03:55:51;0.00;0.00;0.62;0.00;0.00;0.62;4.57;3.30;;;25.90;28.20;;;;;;2269534;61;20452;-69
2022/10/21 03:58:35;0.00;0.00;0.62;0.00;0.00;0.62;3.87;3.20;;;25.90;28.10;;;;;;2269984;61;20376;-69
2022/10/21 04:01:21;0.00;0.00;0.62;0.00;0.00;0.62;3.50;3.07;;;25.90;28.10;;;;;;2268681;61;20627;-69
2022/10/21 04:04:06;0.00;0.00;0.62;0.00;0.00;0.62;3.97;3.30;;;25.90;28.10;;;;;;2269713;61;20802;-69
2022/10/21 04:06:51;0.00;0.00;0.62;0.00;0.00;0.62;4.37;3.20;;;25.90;28.10;;;;;;2269961;61;20790;-69
2022/10/21 04:09:36;0.00;0.00;0.62;0.00;0.00;0.62;3.97;3.57;;;25.90;28.10;;;;;;2269183;61;20402;-70
2022/10/21 04:12:20;0.00;0.00;0.62;0.00;0.00;0.62;5.70;3.87;;;25.90;28.10;;;;;;2270098;61;20351;-69
2022/10/21 04:15:07;0.00;0.00;0.62;0.00;0.00;0.62;4.28;3.80;;;25.90;28.30;;;;;;2268577;61;20394;-69
2022/10/21 04:17:53;0.00;0.00;0.62;0.00;0.00;0.62;4.80;3.33;;;25.90;28.40;;;;;;2269366;61;20221;-69
2022/10/21 04:20:38;0.00;0.00;0.62;0.00;0.00;0.62;4.20;3.40;;;25.90;28.40;;;;;;2269866;61;20484;-69
2022/10/21 04:23:23;0.00;0.00;0.62;0.00;0.00;0.62;4.87;3.83;;;25.90;28.30;;;;;;2268926;61;20368;-69
2022/10/21 04:26:09;0.00;0.00;0.62;0.00;0.00;0.62;3.80;3.50;;;25.90;28.30;;;;;;2269662;61;20767;-69
2022/10/21 04:28:53;0.00;0.00;0.62;0.00;0.00;0.62;5.87;4.20;;;25.90;28.40;;;;;;2269700;61;20356;-69
2022/10/21 04:31:38;0.00;0.00;0.62;0.00;0.00;0.62;5.70;3.20;;;25.90;28.40;;;;;;2269302;61;20392;-69
2022/10/21 04:34:24;0.00;0.00;0.62;0.00;0.00;0.62;4.87;3.20;;;25.90;28.40;;;;;;2268114;61;20381;-70
2022/10/21 04:37:09;0.00;0.00;0.62;0.00;0.00;0.62;3.43;3.13;;;25.80;28.40;;;;;;2265516;61;20807;-69
2022/10/21 04:39:56;0.00;0.00;0.62;0.00;0.00;0.62;4.07;3.67;;;25.90;28.40;;;;;;2265239;61;20430;-69
2022/10/21 04:42:41;0.00;0.00;0.62;0.00;0.00;0.62;4.23;3.80;;;25.80;28.50;;;;;;2265359;61;20396;-69
2022/10/21 04:45:26;0.00;0.00;0.62;0.00;0.00;0.62;4.60;4.20;;;25.80;28.50;;;;;;2265426;61;20385;-69
2022/10/21 04:48:12;0.00;0.00;0.62;0.00;0.00;0.62;4.23;3.70;;;25.80;29.10;;;;;;2265497;61;20365;-69
2022/10/21 04:50:58;0.00;0.00;0.62;0.00;0.00;0.62;5.43;3.77;;;25.80;28.60;;;;;;2265565;61;20388;-69
2022/10/21 04:53:43;0.00;0.00;0.62;0.00;0.00;0.62;3.10;2.70;;;25.80;29.10;;;;;;2265247;61;20361;-69
2022/10/21 04:56:27;0.00;0.00;0.62;0.00;0.00;0.62;6.97;3.40;;;25.80;28.60;;;;;;2265614;61;20768;-69
2022/10/21 04:59:12;0.00;0.00;0.62;0.00;0.00;0.62;3.50;3.20;;;25.80;28.60;;;;;;2265331;61;20368;-69
2022/10/21 05:01:57;0.00;0.00;0.62;0.00;0.00;0.62;3.40;3.07;;;25.80;28.70;;;;;;2265216;61;20356;-68
2022/10/21 05:04:42;0.00;0.00;0.62;0.00;0.00;0.62;4.20;3.80;;;25.80;28.70;;;;;;2265417;61;20455;-68
2022/10/21 05:07:28;0.00;0.00;0.62;0.00;0.00;0.62;3.60;3.30;;;25.80;28.70;;;;;;2265473;61;20434;-68
2022/10/21 05:10:13;0.00;0.00;0.62;0.00;0.00;0.62;3.90;3.60;;;25.80;28.70;;;;;;2265382;61;20357;-69
2022/10/21 05:12:58;0.00;0.00;0.62;0.00;0.00;0.62;3.73;3.07;;;25.70;28.70;;;;;;2265693;61;20357;-69
2022/10/21 05:15:42;0.00;0.00;0.62;0.00;0.00;0.62;4.07;3.40;;;25.70;28.60;;;;;;2265118;61;20596;-70
2022/10/21 05:18:28;0.00;0.00;0.62;0.00;0.00;0.62;3.70;3.30;;;25.70;28.60;;;;;;2265498;61;20456;-67
2022/10/21 05:21:13;0.00;0.00;0.62;0.00;0.00;0.62;4.80;3.90;;;25.70;29.10;;;;;;2265452;61;20368;-70
2022/10/21 05:23:59;0.00;0.00;0.62;0.00;0.00;0.62;3.43;3.13;;;25.80;28.60;;;;;;2264764;61;20380;-70
2022/10/21 05:26:44;0.00;0.00;0.62;0.00;0.00;0.62;3.10;2.40;;;25.80;28.60;;;;;;2265632;61;20431;-70
2022/10/21 05:29:28;0.00;0.00;0.62;0.00;0.00;0.62;3.33;3.03;;;25.80;28.60;;;;;;2265354;61;20725;-70
2022/10/21 05:32:13;0.00;0.00;0.62;0.00;0.00;0.62;3.60;3.03;;;25.80;28.60;;;;;;2264456;61;20446;-70
2022/10/21 05:34:58;0.00;0.00;0.62;0.00;0.00;0.62;4.40;3.20;;;25.80;28.60;;;;;;2265608;61;20388;-69
2022/10/21 05:37:42;0.00;0.00;0.62;0.00;0.00;0.62;5.10;3.17;;;25.80;28.60;;;;;;2264932;61;20372;-69
2022/10/21 05:40:28;0.00;0.00;0.62;0.00;0.00;0.62;4.80;3.27;;;25.80;28.60;;;;;;2264961;61;20595;-69
2022/10/21 05:43:13;0.00;0.00;0.62;0.00;0.00;0.62;3.77;3.13;;;25.80;28.60;;;;;;2265118;61;20357;-69
2022/10/21 05:45:57;0.00;0.00;0.62;0.00;0.00;0.62;3.90;3.30;;;25.80;28.60;;;;;;2264843;61;20389;-69
2022/10/21 05:48:42;0.00;0.00;0.62;0.00;0.00;0.62;3.70;3.30;;;25.90;28.70;;;;;;2265557;61;20427;-69
2022/10/21 05:51:27;0.00;0.00;0.62;0.00;0.00;0.62;3.37;3.00;;;25.90;29.20;;;;;;2265138;61;20376;-69
2022/10/21 05:54:12;0.00;0.00;0.62;0.00;0.00;0.62;3.83;3.47;;;25.90;28.70;;;;;;2264863;61;20360;-66
2022/10/21 05:56:58;0.00;0.00;0.62;0.00;0.00;0.62;4.37;3.10;;;25.90;28.70;;;;;;2265673;61;20389;-66
2022/10/21 05:59:43;0.00;0.00;0.62;0.00;0.00;0.62;5.87;4.03;;;25.90;28.70;;;;;;2264711;61;20360;-67
2022/10/21 06:02:28;0.00;0.00;0.62;0.00;0.00;0.62;4.50;4.10;;;25.90;28.70;;;;;;2265335;61;20403;-65
2022/10/21 06:05:13;0.00;0.00;0.62;0.00;0.00;0.62;4.67;4.20;;;25.90;28.70;;;;;;2265629;61;20395;-70
2022/10/21 06:07:57;0.00;0.00;0.62;0.00;0.00;0.62;4.73;3.83;;;25.90;28.70;;;;;;2264789;61;20360;-71
2022/10/21 06:10:42;0.00;0.00;0.62;0.00;0.00;0.62;5.57;3.90;;;25.90;28.70;;;;;;2265622;61;20407;-68
2022/10/21 06:13:29;0.00;0.00;0.62;0.00;0.00;0.62;4.77;3.40;;;25.90;28.70;;;;;;2265430;61;20365;-66
2022/10/21 06:16:15;0.00;0.00;0.62;0.00;0.00;0.62;4.07;3.67;;;25.90;28.70;;;;;;2265630;61;20379;-68
2022/10/21 06:19:00;0.00;0.00;0.62;0.00;0.00;0.62;4.33;3.93;;;25.90;28.70;;;;;;2266228;61;20430;-69
2022/10/21 06:21:46;0.00;0.00;0.62;0.00;0.00;0.62;4.80;3.77;;;25.90;28.70;;;;;;2265520;61;20353;-66
2022/10/21 06:24:31;0.00;0.00;0.62;0.00;0.00;0.62;4.13;3.73;;;25.90;28.80;;;;;;2266143;61;20775;-72
2022/10/21 06:27:16;0.00;0.00;0.62;0.00;0.00;0.62;4.77;4.37;;;25.90;28.80;;;;;;2266243;61;20349;-74
2022/10/21 06:30:03;0.00;0.00;0.62;0.00;0.00;0.62;4.97;4.20;;;25.90;28.80;;;;;;2265109;61;20589;-70
2022/10/21 06:32:48;0.00;0.00;0.62;0.00;0.00;0.62;4.37;3.97;;;25.90;28.90;;;;;;2265949;61;20368;-68
2022/10/21 06:35:32;0.00;0.00;0.62;0.00;0.00;0.62;4.37;3.97;;;25.90;29.00;;;;;;2265250;61;20388;-73
2022/10/21 06:38:18;0.00;0.00;0.62;0.00;0.00;0.62;3.90;3.50;;;25.90;29.00;;;;;;2265649;61;20408;-68
2022/10/21 06:41:05;0.00;0.00;0.62;0.00;0.00;0.62;4.53;4.13;;;25.90;29.00;;;;;;2265966;61;20716;-70
2022/10/21 06:43:50;0.00;0.00;0.62;0.00;0.00;0.62;3.97;3.50;;;25.90;29.00;;;;;;2265739;61;20426;-68
2022/10/21 06:46:36;0.00;0.00;0.62;0.00;0.00;0.62;3.90;2.93;;;25.90;29.00;;;;;;2265985;61;20417;-67
2022/10/21 06:49:21;0.00;0.00;0.62;0.00;0.00;0.62;3.70;3.30;;;25.90;29.00;;;;;;2265711;61;20434;-74
2022/10/21 06:52:05;0.00;0.00;0.62;0.00;0.00;0.62;3.40;3.10;;;25.90;29.00;;;;;;2265521;61;20361;-72
2022/10/21 06:54:50;0.00;0.00;0.62;0.00;0.00;0.62;4.33;3.30;;;25.90;29.00;;;;;;2266081;61;20377;-71
2022/10/21 06:57:35;0.00;0.00;0.62;0.00;0.00;0.62;3.90;3.30;;;25.90;29.00;;;;;;2265920;61;20396;-68
2022/10/21 07:00:20;0.00;0.00;0.62;0.00;0.00;0.62;4.00;3.60;;;25.90;29.00;;;;;;2265076;61;20372;-70
2022/10/21 07:03:06;0.00;0.00;0.62;0.00;0.00;0.62;3.20;2.90;;;25.90;29.00;;;;;;2265890;61;20760;-72
2022/10/21 07:05:58;0.00;0.00;0.62;0.00;0.00;0.62;3.80;2.70;;;26.00;29.00;;;;;;2265787;61;20380;-70
2022/10/21 07:08:43;0.00;0.00;0.62;0.00;0.00;0.62;3.13;2.83;;;26.00;29.50;;;;;;2265859;61;20376;-71
2022/10/21 07:11:28;0.00;0.00;0.62;0.00;0.00;0.62;3.10;2.80;;;26.00;29.00;;;;;;2266104;61;20721;-76
2022/10/21 07:14:13;0.00;0.00;0.62;0.00;0.00;0.62;3.90;3.33;;;26.00;29.00;;;;;;2265423;61;20357;-71
2022/10/21 07:16:57;0.00;0.00;0.62;0.00;0.00;0.62;4.20;3.60;;;26.00;29.00;;;;;;2265884;61;20353;-69
2022/10/21 07:19:43;0.00;0.00;0.62;0.00;0.00;0.62;3.83;3.20;;;26.00;29.00;;;;;;2265348;61;20357;-69
2022/10/21 07:22:28;0.00;0.00;0.62;0.00;0.00;0.62;4.63;2.90;;;26.00;29.00;;;;;;2265314;61;20575;-71
2022/10/21 07:25:13;0.00;0.00;0.62;0.00;0.00;0.62;5.03;4.33;;;26.00;29.00;;;;;;2265496;61;20638;-71
2022/10/21 07:27:58;0.00;0.00;0.62;0.00;0.00;0.62;4.00;3.60;;;26.00;29.20;;;;;;2265699;61;20411;-68
2022/10/21 07:30:44;0.00;0.00;0.62;0.00;0.00;0.62;4.03;3.43;;;26.00;29.70;;;;;;2265559;61;20423;-68
2022/10/21 07:33:28;0.00;0.00;0.62;0.00;0.00;0.62;3.53;3.20;;;26.00;29.20;;;;;;2265890;61;20772;-65
2022/10/21 07:36:18;0.00;0.00;0.62;0.00;0.00;0.62;3.30;3.00;;;26.00;29.20;;;;;;2685785;45;20394;-63
2022/10/21 07:39:06;0.00;0.00;0.62;0.00;0.00;0.62;2.97;2.67;;;26.00;29.20;;;;;;2262055;61;20698;-64
2022/10/21 07:41:52;0.00;0.00;0.62;0.00;0.00;0.62;3.10;2.80;;;26.00;29.20;;;;;;2261637;61;20404;-71
2022/10/21 07:44:37;0.00;0.00;0.62;0.00;0.00;0.62;4.43;3.47;;;26.00;29.20;;;;;;2260676;61;20673;-71
2022/10/21 07:47:22;0.00;0.00;0.62;0.00;0.00;0.62;3.83;3.30;;;26.00;29.40;;;;;;2262208;61;20606;-70
2022/10/21 07:50:08;0.00;0.00;0.62;0.00;0.00;0.62;3.40;3.03;;;26.00;29.40;;;;;;2261699;61;20709;-63
2022/10/21 07:52:54;0.00;0.00;0.62;0.00;0.00;0.62;3.03;2.60;;;26.00;29.40;;;;;;2260832;61;20362;-64
2022/10/21 07:55:39;0.00;0.00;0.62;0.00;0.00;0.62;3.37;3.07;;;26.00;29.40;;;;;;2262127;61;20750;-64
2022/10/21 07:58:23;0.00;0.00;0.62;0.00;0.00;0.62;2.83;2.57;;;26.00;29.40;;;;;;2261156;61;20381;-64
2022/10/21 08:01:09;0.00;0.00;0.62;0.00;0.00;0.62;3.07;2.57;;;26.00;29.40;;;;;;2261685;61;20368;-63
2022/10/21 08:03:55;0.00;0.00;0.62;0.00;0.00;0.62;3.93;3.40;;;26.00;29.40;;;;;;2261580;61;20591;-72
2022/10/21 08:06:41;0.00;0.00;0.62;0.00;0.00;0.62;4.27;3.40;;;26.00;29.40;;;;;;2261248;61;20484;-64
2022/10/21 08:09:27;0.00;0.00;0.62;0.00;0.00;0.62;3.07;2.77;;;26.00;29.40;;;;;;2262033;61;20361;-68
2022/10/21 08:12:12;0.00;0.00;0.62;0.00;0.00;0.62;2.60;2.40;;;26.00;29.40;;;;;;2261300;61;20366;-70
2022/10/21 08:14:57;0.00;0.00;0.62;0.00;0.00;0.62;4.37;3.40;;;26.00;29.40;;;;;;2260812;61;20393;-70
2022/10/21 08:17:41;0.00;0.00;0.62;0.00;0.00;0.62;2.83;2.50;;;26.00;29.40;;;;;;2261951;61;20354;-67
2022/10/21 08:20:26;0.00;0.00;0.62;0.00;0.00;0.62;3.47;2.73;;;26.10;29.50;;;;;;2260834;61;20953;-70
2022/10/21 08:23:13;0.00;0.00;0.62;0.00;0.00;0.62;3.30;2.50;;;26.10;29.50;;;;;;2261584;61;20396;-70
2022/10/21 08:26:00;0.00;0.00;0.62;0.00;0.00;0.62;2.83;2.40;;;26.10;29.50;;;;;;2261501;61;20424;-71
2022/10/21 08:28:44;0.00;0.00;0.62;0.00;0.00;0.62;3.00;2.50;;;26.10;29.50;;;;;;2261283;61;20370;-72
2022/10/21 08:31:30;0.00;0.00;0.62;0.00;0.00;0.62;2.73;2.40;;;26.20;29.50;;;;;;2261861;61;20442;-69
2022/10/21 08:34:15;0.00;0.00;0.62;0.00;0.00;0.62;3.37;2.60;;;26.20;29.50;;;;;;2262538;61;20403;-69
2022/10/21 08:37:00;0.00;0.00;0.62;0.00;0.00;0.62;2.70;2.30;;;26.20;29.40;;;;;;2264737;61;20408;-73
2022/10/21 08:39:45;0.00;0.00;0.62;0.00;0.00;0.62;3.20;2.23;;;26.20;29.40;;;;;;2265751;61;20440;-68
2022/10/21 08:42:31;0.00;0.00;0.62;0.00;0.00;0.62;2.20;2.00;;;26.20;29.40;;;;;;2265085;61;20361;-66
2022/10/21 08:45:28;0.00;0.00;0.62;0.00;0.00;0.62;2.93;2.50;;;26.20;29.40;;;;;;2265649;61;20504;-66
2022/10/21 08:48:17;0.00;0.00;0.62;0.00;0.00;0.62;2.43;1.73;;;26.30;29.40;;;;;;2265595;61;20361;-68
2022/10/21 08:51:07;0.00;0.00;0.62;0.00;0.00;0.62;2.80;2.43;;;26.30;29.40;;;;;;2265415;61;20357;-71
2022/10/21 08:53:55;0.00;0.00;0.62;0.00;0.00;0.62;2.47;2.07;;;26.30;29.40;;;;;;2265892;61;20627;-71
2022/10/21 08:56:40;0.00;0.00;0.62;0.00;0.00;0.62;2.30;2.00;;;26.30;29.40;;;;;;2265527;61;20705;-70
2022/10/21 08:59:26;0.00;0.00;0.62;0.00;0.00;0.62;2.10;1.90;;;26.30;29.30;;;;;;2264866;61;20399;-67
2022/10/21 09:02:42;0.00;0.00;0.62;0.00;0.00;0.62;2.60;1.80;;;26.40;29.30;;;;;;2265834;61;20373;-68
2022/10/21 09:06:00;0.00;0.00;0.62;0.00;0.00;0.62;2.57;1.70;;;26.40;29.30;;;;;;2264821;61;20401;-69
2022/10/21 09:09:11;0.00;0.00;0.62;0.00;0.00;0.62;3.00;2.03;;;26.40;29.30;;;;;;2265660;61;20404;-68
2022/10/21 09:12:07;0.00;0.00;0.62;0.00;0.00;0.62;2.73;2.03;;;26.40;29.30;;;;;;2265324;61;20425;-69
2022/10/21 09:15:20;0.00;0.00;0.62;0.00;0.00;0.62;2.07;1.83;;;26.50;29.30;;;;;;2265207;61;20460;-71
2022/10/21 09:18:20;0.00;0.00;0.62;0.00;0.00;0.62;2.50;1.57;;;26.50;29.30;;;;;;2265461;61;20392;-65
2022/10/21 09:21:17;0.00;0.00;0.62;0.00;0.00;0.62;2.33;1.97;;;26.50;29.30;;;;;;2264625;61;20619;-71
2022/10/21 09:24:10;0.00;0.00;0.62;0.00;0.00;0.62;3.03;1.97;;;26.50;29.30;;;;;;2265759;61;20385;-67
2022/10/21 09:26:55;0.00;0.00;0.62;0.00;0.00;0.62;2.47;2.10;;;26.50;29.30;;;;;;2264912;61;20435;-73
2022/10/21 09:29:43;0.00;0.00;0.62;0.00;0.00;0.62;2.43;2.23;;;26.60;29.30;;;;;;2265506;61;20438;-73
2022/10/21 09:32:34;0.00;0.00;0.62;0.00;0.00;0.62;2.30;1.70;;;26.60;29.30;;;;;;2265626;61;20570;-69
2022/10/21 09:35:30;0.00;0.00;0.62;0.00;0.00;0.62;2.00;1.63;;;26.60;29.30;;;;;;2265102;61;20489;-69
2022/10/21 09:38:24;0.00;0.00;0.62;0.00;0.00;0.62;1.97;1.63;;;26.60;29.30;;;;;;2265794;61;20725;-67
2022/10/21 09:41:15;0.00;0.00;0.62;0.00;0.00;0.62;1.90;1.40;;;26.60;29.20;;;;;;2265190;61;20757;-69
2022/10/21 09:44:00;0.00;0.00;0.62;0.00;0.00;0.62;2.00;1.63;;;26.70;29.20;;;;;;2265320;61;20376;-66
2022/10/21 09:46:45;0.00;0.00;0.62;0.00;0.00;0.62;2.40;1.40;;;26.70;29.20;;;;;;2266777;61;20372;-70
2022/10/21 09:49:35;0.00;0.00;0.62;0.00;0.00;0.62;1.97;1.70;;;26.80;29.20;;;;;;2266274;61;20357;-71
2022/10/21 09:52:24;0.00;0.00;0.62;0.00;0.00;0.62;2.20;1.40;;;26.80;29.20;;;;;;2267008;61;20475;-73
2022/10/21 09:55:12;0.00;0.00;0.62;0.00;0.00;0.62;2.10;1.70;;;26.80;29.20;;;;;;2266585;61;20377;-70
2022/10/21 09:58:00;0.00;0.00;0.62;0.00;0.00;0.62;1.90;1.60;;;26.80;29.10;;;;;;2266243;61;20376;-69
2022/10/21 10:00:48;0.00;0.00;0.62;0.00;0.00;0.62;2.37;2.00;;;26.80;29.10;;;;;;2266803;61;20433;-73
2022/10/21 10:03:36;0.00;0.00;0.62;0.00;0.00;0.62;2.00;1.80;;;26.80;29.10;;;;;;2265225;61;20428;-71
2022/10/21 10:06:35;0.00;0.00;0.62;0.00;0.00;0.62;2.10;1.40;;;26.90;29.20;;;;;;2266559;61;20377;-68
2022/10/21 10:09:27;0.00;0.00;0.62;0.00;0.00;0.62;1.73;1.33;;;26.90;29.10;;;;;;2267047;61;20365;-68
2022/10/21 10:12:14;0.00;0.00;0.62;0.00;0.00;0.62;1.90;1.70;;;26.90;29.10;;;;;;2266170;61;20396;-68
2022/10/21 10:15:22;0.00;0.00;0.62;0.00;0.00;0.62;2.00;1.43;;;26.90;29.10;;;;;;2266725;61;20596;-68
2022/10/21 10:18:20;0.00;0.00;0.62;0.00;0.00;0.62;2.93;2.10;;;27.00;29.10;;;;;;2266489;61;20438;-74
2022/10/21 10:21:09;0.00;0.00;0.62;0.00;0.00;0.62;2.13;1.80;;;27.00;29.10;;;;;;2265937;61;20365;-72
2022/10/21 10:23:56;0.00;0.00;0.62;0.00;0.00;0.62;2.17;1.80;;;27.00;29.00;;;;;;2266663;61;20356;-70
2022/10/21 10:26:42;0.00;0.00;0.62;0.00;0.00;0.62;1.80;1.50;;;27.00;29.00;;;;;;2266079;61;20365;-70
2022/10/21 10:29:27;0.00;0.00;0.62;0.00;0.00;0.62;2.00;1.70;;;27.00;29.00;;;;;;2266283;61;20372;-65
2022/10/21 10:32:15;0.00;0.00;0.62;0.00;0.00;0.62;1.87;1.57;;;27.10;29.00;;;;;;2266533;61;20340;-70
2022/10/21 10:35:03;0.00;0.00;0.62;0.00;0.00;0.62;1.83;1.33;;;27.10;29.00;;;;;;2266006;61;20389;-71
2022/10/21 10:37:49;0.00;0.00;0.62;0.00;0.00;0.62;3.30;1.50;;;27.10;29.00;;;;;;2266879;61;20365;-70
2022/10/21 10:40:42;0.00;0.00;0.62;0.00;0.00;0.62;1.93;1.60;;;27.10;29.00;;;;;;2266434;61;20361;-72
2022/10/21 10:43:30;0.00;0.00;0.62;0.00;0.00;0.62;2.10;1.77;;;27.10;29.00;;;;;;2266537;61;20799;-68
2022/10/21 10:46:24;0.00;0.00;0.62;0.00;0.00;0.62;1.83;1.40;;;27.10;28.90;;;;;;2266437;61;20424;-67
2022/10/21 10:49:22;0.00;0.00;0.62;0.00;0.00;0.62;1.93;1.60;;;27.10;28.90;;;;;;2266146;61;20360;-64
2022/10/21 10:52:20;0.00;0.00;0.62;0.00;0.00;0.62;2.03;1.63;;;27.20;29.00;;;;;;2266515;61;20577;-70
2022/10/21 10:55:17;0.00;0.00;0.62;0.00;0.00;0.62;2.07;1.60;;;27.20;29.00;;;;;;2266212;61;20381;-73
2022/10/21 10:58:03;0.00;0.00;0.62;0.00;0.00;0.62;2.23;1.63;;;27.20;28.90;;;;;;2266071;61;20569;-71
2022/10/21 11:00:52;0.00;0.00;0.62;0.00;0.00;0.62;1.77;1.43;;;27.20;29.00;;;;;;2265364;61;20353;-64